createdAt,value
2017-12-31T00:01:45.796Z,10.65
2017-12-31T00:07:49.306Z,10.70
2017-12-31T00:13:54.039Z,10.67
2017-12-31T00:19:57.795Z,10.64
2017-12-31T00:26:01.277Z,10.66
2017-12-31T00:32:04.762Z,10.67
2017-12-31T00:38:09.054Z,10.67
2017-12-31T00:44:12.629Z,10.70
2017-12-31T00:50:16.561Z,10.65
2017-12-31T00:56:20.467Z,10.66
2017-12-31T01:02:25.143Z,10.59
2017-12-31T01:08:28.772Z,10.56
2017-12-31T01:14:32.531Z,10.58
2017-12-31T01:20:36.046Z,10.62
2017-12-31T01:26:39.703Z,10.61
2017-12-31T01:32:43.289Z,10.66
2017-12-31T01:38:46.855Z,10.64
2017-12-31T01:44:51.148Z,10.56
2017-12-31T01:50:55.235Z,10.50
2017-12-31T01:56:58.798Z,10.39
2017-12-31T02:03:02.396Z,10.32
2017-12-31T02:09:05.949Z,10.12
2017-12-31T02:15:10.164Z,9.91
2017-12-31T02:21:13.779Z,9.79
2017-12-31T02:27:17.385Z,9.59
2017-12-31T02:33:21.261Z,9.60
2017-12-31T02:39:24.898Z,9.52
2017-12-31T02:45:28.384Z,9.45
2017-12-31T02:51:31.938Z,9.33
2017-12-31T02:57:35.538Z,9.28
2017-12-31T03:03:39.029Z,9.29
2017-12-31T03:09:42.569Z,9.39
2017-12-31T03:15:46.110Z,9.47
2017-12-31T03:21:49.918Z,9.54
2017-12-31T03:27:54.827Z,9.49
2017-12-31T03:33:59.233Z,9.32
2017-12-31T03:40:02.703Z,9.31
2017-12-31T03:46:06.575Z,9.29
2017-12-31T03:52:10.151Z,9.23
2017-12-31T03:58:13.621Z,9.20
2017-12-31T04:04:17.970Z,9.08
2017-12-31T04:10:21.825Z,9.09
2017-12-31T04:22:35.083Z,9.02
2017-12-31T04:28:38.576Z,8.95
2017-12-31T04:34:43.119Z,8.91
2017-12-31T04:40:46.712Z,8.92
2017-12-31T04:46:50.640Z,8.91
2017-12-31T04:52:54.280Z,8.90
2017-12-31T04:58:57.922Z,8.89
2017-12-31T05:05:01.463Z,8.91
2017-12-31T05:11:05.800Z,8.85
2017-12-31T05:17:09.503Z,8.82
2017-12-31T05:23:13.419Z,8.74
2017-12-31T05:29:18.848Z,8.68
2017-12-31T05:35:23.473Z,8.50
2017-12-31T05:41:27.525Z,8.57
2017-12-31T05:47:31.463Z,8.49
2017-12-31T05:53:34.967Z,8.49
2017-12-31T05:59:38.456Z,8.47
2017-12-31T06:05:43.520Z,8.49
2017-12-31T06:11:48.092Z,8.47
2017-12-31T06:17:52.117Z,8.42
2017-12-31T06:23:55.831Z,8.42
2017-12-31T06:30:00.093Z,8.46
2017-12-31T06:36:04.388Z,8.45
2017-12-31T06:42:07.893Z,8.52
2017-12-31T06:48:11.455Z,8.60
2017-12-31T06:54:14.932Z,8.71
2017-12-31T07:00:18.387Z,8.75
2017-12-31T07:06:23.002Z,8.84
2017-12-31T07:12:26.576Z,8.96
2017-12-31T07:18:30.052Z,9.11
2017-12-31T07:24:33.548Z,9.23
2017-12-31T07:30:37.106Z,9.48
2017-12-31T07:36:41.341Z,9.70
2017-12-31T07:42:44.802Z,9.87
2017-12-31T07:48:48.280Z,9.99
2017-12-31T07:54:53.040Z,10.07
2017-12-31T08:00:56.564Z,10.20
2017-12-31T08:07:00.042Z,10.25
2017-12-31T08:13:03.536Z,10.35
2017-12-31T08:19:07.057Z,10.37
2017-12-31T08:25:10.554Z,10.41
2017-12-31T08:31:14.209Z,10.48
2017-12-31T08:37:18.450Z,10.57
2017-12-31T08:43:23.253Z,10.57
2017-12-31T08:49:27.550Z,10.68
2017-12-31T08:55:31.156Z,10.72
2017-12-31T09:01:34.880Z,10.78
2017-12-31T09:07:38.473Z,10.76
2017-12-31T09:13:41.944Z,10.86
2017-12-31T09:19:46.616Z,10.88
2017-12-31T09:25:50.108Z,10.86
2017-12-31T09:31:54.402Z,10.94
2017-12-31T09:37:58.002Z,11.14
2017-12-31T09:44:02.269Z,11.30
2017-12-31T09:50:05.870Z,11.41
2017-12-31T09:56:09.408Z,11.37
2017-12-31T10:02:13.680Z,11.42
2017-12-31T10:08:18.085Z,11.43
2017-12-31T10:14:21.665Z,11.49
2017-12-31T10:20:26.426Z,11.51
2017-12-31T10:26:29.937Z,11.47
2017-12-31T10:32:33.557Z,11.42
2017-12-31T10:38:37.067Z,11.42
2017-12-31T10:44:40.616Z,11.36
2017-12-31T10:50:44.150Z,11.42
2017-12-31T10:56:47.626Z,11.54
2017-12-31T11:02:51.227Z,11.73
2017-12-31T11:08:55.197Z,11.76
2017-12-31T11:14:58.696Z,11.75
2017-12-31T11:21:02.959Z,11.81
2017-12-31T11:27:06.473Z,11.80
2017-12-31T11:33:10.144Z,11.90
2017-12-31T11:39:13.735Z,11.86
2017-12-31T11:45:18.034Z,11.84
2017-12-31T11:51:22.043Z,11.83
2017-12-31T11:57:25.584Z,11.79
2017-12-31T12:03:29.097Z,11.73
2017-12-31T12:09:32.590Z,11.64
2017-12-31T12:15:36.382Z,11.59
2017-12-31T12:21:39.938Z,11.66
2017-12-31T12:27:43.441Z,11.77
2017-12-31T12:33:47.230Z,11.88
2017-12-31T12:39:51.103Z,11.86
2017-12-31T12:45:55.188Z,11.87
2017-12-31T12:51:59.455Z,11.92
2017-12-31T12:58:03.192Z,11.90
2017-12-31T13:04:06.723Z,11.89
2017-12-31T13:10:10.282Z,11.89
2017-12-31T13:16:13.807Z,11.98
2017-12-31T13:22:17.308Z,12.00
2017-12-31T13:28:20.928Z,11.97
2017-12-31T13:34:24.658Z,11.95
2017-12-31T13:40:28.931Z,11.91
2017-12-31T13:46:33.288Z,11.93
2017-12-31T13:52:36.884Z,12.00
2017-12-31T13:58:40.445Z,11.98
2017-12-31T14:04:43.993Z,11.95
2017-12-31T14:10:47.627Z,12.07
2017-12-31T14:16:51.923Z,12.09
2017-12-31T14:22:55.466Z,12.02
2017-12-31T14:28:59.767Z,12.02
2017-12-31T14:35:03.281Z,12.20
2017-12-31T14:41:07.706Z,12.24
2017-12-31T14:47:11.226Z,12.05
2017-12-31T14:53:15.512Z,11.86
2017-12-31T14:59:19.225Z,11.92
2017-12-31T15:05:22.717Z,11.77
2017-12-31T15:11:26.303Z,11.79
2017-12-31T15:17:29.866Z,11.79
2017-12-31T15:23:33.417Z,11.81
2017-12-31T15:29:36.961Z,11.90
2017-12-31T15:35:40.622Z,11.98
2017-12-31T15:41:44.116Z,11.98
2017-12-31T15:47:47.811Z,11.90
2017-12-31T15:53:51.803Z,11.85
2017-12-31T15:59:55.522Z,11.91
2017-12-31T16:05:59.826Z,11.93
2017-12-31T16:12:03.439Z,11.92
2017-12-31T16:18:06.916Z,11.92
2017-12-31T16:24:10.584Z,11.92
2017-12-31T16:30:14.199Z,11.85
2017-12-31T16:36:17.689Z,11.96
2017-12-31T16:42:21.220Z,11.90
2017-12-31T16:48:25.081Z,11.94
2017-12-31T16:54:28.601Z,11.99
2017-12-31T17:00:32.122Z,12.00
2017-12-31T17:06:35.812Z,12.05
2017-12-31T17:12:39.349Z,12.08
2017-12-31T17:18:42.909Z,12.09
2017-12-31T17:24:46.409Z,12.04
2017-12-31T17:30:50.915Z,12.14
2017-12-31T17:36:54.599Z,12.15
2017-12-31T17:42:58.162Z,12.15
2017-12-31T17:49:01.725Z,12.28
2017-12-31T17:55:05.235Z,12.29
2017-12-31T18:01:09.598Z,12.35
2017-12-31T18:07:13.972Z,12.35
2017-12-31T18:13:18.370Z,12.41
2017-12-31T18:19:21.853Z,12.43
2017-12-31T18:25:25.376Z,12.43
2017-12-31T18:31:28.976Z,12.35
2017-12-31T18:37:32.448Z,12.36
2017-12-31T18:43:35.924Z,12.34
2017-12-31T18:49:40.193Z,12.34
2017-12-31T18:55:44.454Z,12.35
2017-12-31T19:01:48.752Z,12.41
2017-12-31T19:07:52.677Z,12.53
2017-12-31T19:13:56.731Z,12.57
2017-12-31T19:20:00.282Z,12.58
2017-12-31T19:26:03.746Z,12.65
2017-12-31T19:32:07.213Z,12.54
2017-12-31T19:38:10.757Z,12.60
2017-12-31T19:44:14.269Z,12.69
2017-12-31T19:50:17.741Z,12.65
2017-12-31T19:56:22.234Z,12.66
2017-12-31T20:02:25.897Z,12.70
2017-12-31T20:08:29.441Z,12.73
2017-12-31T20:14:32.940Z,12.75
2017-12-31T20:20:37.333Z,12.68
2017-12-31T20:26:40.785Z,12.73
2017-12-31T20:32:44.275Z,12.76
2017-12-31T20:38:47.762Z,12.75
2017-12-31T20:44:51.361Z,12.63
2017-12-31T20:50:55.182Z,12.66
2017-12-31T20:56:58.913Z,12.56
2017-12-31T21:03:02.407Z,12.71
2017-12-31T21:09:06.685Z,12.65
2017-12-31T21:15:10.184Z,12.65
2017-12-31T21:21:13.826Z,12.67
2017-12-31T21:27:17.341Z,12.76
2017-12-31T21:33:22.454Z,12.70
2017-12-31T21:39:26.031Z,12.62
2017-12-31T21:45:29.566Z,12.59
2017-12-31T21:51:33.076Z,12.60
2017-12-31T21:57:36.595Z,12.53
2017-12-31T22:03:40.154Z,12.50
2017-12-31T22:09:43.717Z,12.46
2017-12-31T22:15:47.215Z,12.40
2017-12-31T22:21:52.466Z,12.37
2017-12-31T22:27:56.348Z,12.26
2017-12-31T22:34:00.649Z,12.26
2017-12-31T22:40:04.926Z,12.20
2017-12-31T22:46:08.497Z,12.19
2017-12-31T22:52:11.982Z,12.28
2017-12-31T22:58:15.599Z,12.28
2017-12-31T23:04:19.472Z,12.21
2017-12-31T23:10:23.346Z,11.39
2017-12-31T23:16:26.962Z,10.08
2017-12-31T23:22:31.232Z,9.47
2017-12-31T23:28:35.516Z,9.18
2017-12-31T23:34:39.822Z,8.96
2017-12-31T23:40:43.329Z,8.94
2017-12-31T23:46:46.789Z,8.80
2017-12-31T23:52:50.731Z,8.80
2017-12-31T23:58:54.464Z,8.72
